Time;durP1;ratioP1;P1;durP2;ratioP2;P2;SDS_P1;SDS_P2;PMS_P1;PMS_P2;Temp;Humidity;BMP_temperature;BMP_pressure;BME280_temperature;BME280_humidity;BME280_pressure;Samples;Min_cycle;Max_cycle;Signal;HPM_P1;HPM_P2
2020/12/02 00:03:21;;;;;;;7.28;5.07;;;6.20;99.90;;;6.07;100.00;102191.19;4015899;27;20334;31
2020/12/02 00:08:44;;;;;;;13.48;5.30;;;6.30;99.90;;;6.19;100.00;102189.22;4016422;35;20139;31
2020/12/02 00:11:44;;;;;;;7.40;5.13;;;6.50;99.90;;;6.35;100.00;102177.84;4002337;27;20124;31
2020/12/02 00:17:18;;;;;;;6.85;5.15;;;6.50;99.90;;;6.41;100.00;102186.25;4015939;35;20216;31
2020/12/02 00:22:25;;;;;;;6.80;5.15;;;6.60;99.90;;;6.45;100.00;102187.66;4016287;27;21472;31
2020/12/02 00:25:08;;;;;;;6.60;4.78;;;6.70;99.90;;;6.51;100.00;102180.88;4024804;27;21519;31
2020/12/02 00:30:14;;;;;;;10.32;5.03;;;6.60;99.90;;;6.55;100.00;102188.53;4004021;27;21080;31
2020/12/02 00:32:53;;;;;;;;;;;6.60;99.90;;;6.44;100.00;102187.81;4040990;27;20538;31
2020/12/02 00:35:27;;;;;;;16.30;5.80;;;6.70;99.90;;;6.29;100.00;102194.63;4027555;33;20083;31
2020/12/02 00:41:08;;;;;;;9.53;5.47;;;6.60;99.90;;;6.54;100.00;102186.00;4016056;27;20569;31
2020/12/02 00:46:24;;;;;;;7.70;4.85;;;6.70;99.90;;;6.35;100.00;102191.34;3991980;27;21308;31
2020/12/02 00:48:59;;;;;;;7.77;5.00;;;6.70;99.90;;;6.44;100.00;102185.97;3980333;27;20211;31
2020/12/02 01:02:48;;;;;;;11.20;6.30;;;6.70;99.90;;;6.67;100.00;102175.72;4004339;35;20558;31
2020/12/02 01:05:24;;;;;;;6.43;4.68;;;6.70;99.90;;;6.49;100.00;102180.13;3986362;27;21390;31
2020/12/02 01:15:43;;;;;;;9.77;5.53;;;6.70;99.90;;;6.46;100.00;102183.13;4004162;27;20987;31
2020/12/02 01:18:25;;;;;;;11.57;5.57;;;6.70;99.90;;;6.51;100.00;102188.97;4028842;27;21327;31
2020/12/02 01:29:01;;;;;;;8.50;4.95;;;6.70;99.90;;;6.44;100.00;102180.56;4029056;27;21455;31
2020/12/02 01:31:59;;;;;;;7.75;5.28;;;6.70;99.90;;;6.35;100.00;102180.53;4025470;33;20137;31
2020/12/02 01:43:01;;;;;;;9.15;5.90;;;6.70;99.90;;;6.40;100.00;102173.72;3846844;35;20194;31
2020/12/02 01:48:41;;;;;;;7.55;5.32;;;6.60;99.90;;;6.41;100.00;102177.28;4016394;27;21057;31
2020/12/02 01:54:16;;;;;;;9.45;4.90;;;6.70;99.90;;;6.38;100.00;102169.44;4003819;27;20128;31
2020/12/02 01:57:09;;;;;;;9.38;6.65;;;6.60;99.90;;;6.39;100.00;102171.16;4001853;27;21481;31
2020/12/02 02:02:17;;;;;;;10.15;5.90;;;6.60;99.90;;;6.52;100.00;102171.75;4016329;35;20129;31
2020/12/02 02:05:14;;;;;;;9.20;5.47;;;6.60;99.90;;;6.48;100.00;102173.88;4040129;32;20131;31
2020/12/02 02:10:32;;;;;;;10.00;5.60;;;6.70;99.90;;;6.38;100.00;102170.31;4016924;35;20137;31
2020/12/02 02:13:18;;;;;;;9.45;5.45;;;6.70;99.90;;;6.44;100.00;102164.31;4023981;33;20226;31
2020/12/02 02:18:30;;;;;;;7.55;5.03;;;6.70;99.90;;;6.37;100.00;102167.75;4017143;27;20409;31
2020/12/02 02:21:14;;;;;;;9.07;5.32;;;6.70;99.90;;;6.43;100.00;102161.78;4014754;27;21348;31
2020/12/02 02:23:48;;;;;;;8.60;5.90;;;6.70;99.90;;;6.52;100.00;102160.94;4024392;27;21328;31
2020/12/02 02:26:52;;;;;;;7.63;4.93;;;6.70;99.90;;;6.64;100.00;102159.81;4041298;32;20594;31
2020/12/02 02:32:02;;;;;;;6.82;5.05;;;6.70;99.90;;;6.42;100.00;102154.66;4016393;35;20308;31
2020/12/02 02:35:00;;;;;;;7.47;4.80;;;6.70;99.90;;;6.55;100.00;102158.78;4040600;32;21352;31
2020/12/02 02:42:49;;;;;;;9.68;5.82;;;6.90;99.90;;;6.60;100.00;102150.25;4018796;35;20122;31
2020/12/02 02:53:30;;;;;;;6.55;4.70;;;6.70;99.90;;;6.56;100.00;102136.13;5185533;27;20369;-89
2020/12/02 02:55:56;;;;;;;7.45;5.15;;;7.40;99.90;;;6.60;100.00;102136.72;5126888;27;20113;-90
2020/12/02 02:58:25;;;;;;;8.23;5.53;;;6.90;99.90;;;6.61;99.69;102135.72;5124522;27;20121;-88
2020/12/02 03:00:58;;;;;;;7.20;5.47;;;6.90;99.90;;;6.54;100.00;102137.31;5145829;27;20065;-89
2020/12/02 03:03:29;;;;;;;6.07;4.68;;;6.90;99.90;;;6.72;100.00;102124.75;5143516;27;20023;-89
2020/12/02 03:05:57;;;;;;;7.40;5.40;;;6.80;99.90;;;6.58;100.00;102133.28;5124795;27;20426;-89
2020/12/02 03:08:23;;;;;;;6.25;5.18;;;6.80;99.90;;;6.72;100.00;102130.16;5106538;27;20057;-90
2020/12/02 03:10:50;;;;;;;10.50;6.25;;;7.20;99.90;;;6.72;100.00;102124.75;5126325;27;20110;-90
2020/12/02 03:13:43;;;;;;;6.53;4.88;;;6.90;99.90;;;6.72;100.00;102127.47;5118358;28;20103;-90
2020/12/02 03:16:23;;;;;;;8.45;5.68;;;7.20;99.90;;;6.90;99.56;102133.84;5103590;28;20091;-90
2020/12/02 03:18:51;;;;;;;6.28;5.30;;;7.10;99.90;;;6.87;99.04;102127.88;5119140;28;20378;-90
2020/12/02 03:21:20;;;;;;;7.53;5.55;;;7.10;99.90;;;6.74;99.66;102116.50;5102955;28;20065;-90
2020/12/02 03:23:47;;;;;;;10.10;5.30;;;6.90;99.90;;;6.73;100.00;102126.47;5119267;28;20126;-90
2020/12/02 03:26:13;;;;;;;8.15;5.60;;;6.90;99.90;;;6.73;99.89;102121.06;5102060;28;20511;-90
2020/12/02 03:28:40;;;;;;;7.65;5.50;;;7.30;99.90;;;6.69;99.88;102127.75;5084599;28;20180;-89
2020/12/02 03:31:11;;;;;;;9.00;5.07;;;6.90;99.90;;;6.73;100.00;102120.19;5105060;28;20023;-89
2020/12/02 03:33:37;;;;;;;7.65;5.50;;;6.90;99.90;;;6.65;100.00;102123.63;5106258;28;20031;-90
2020/12/02 03:36:03;;;;;;;11.85;6.75;;;7.00;99.90;;;6.58;100.00;102127.88;5102070;28;20019;-90
2020/12/02 03:38:29;;;;;;;8.48;5.95;;;6.90;99.90;;;6.73;99.93;102133.72;5085740;28;20389;-89
2020/12/02 03:40:55;;;;;;;9.27;6.00;;;6.90;99.90;;;6.62;100.00;102115.78;5085648;28;20051;-89
2020/12/02 03:43:22;;;;;;;7.10;5.40;;;6.90;99.90;;;6.77;99.66;102116.22;5118837;28;20031;-90
2020/12/02 03:45:48;;;;;;;9.90;5.75;;;6.90;99.90;;;6.57;100.00;102126.19;5123386;28;20023;-89
2020/12/02 03:48:16;;;;;;;11.18;6.50;;;6.80;99.90;;;6.68;100.00;102117.91;5118167;28;20031;-89
2020/12/02 03:50:43;;;;;;;9.70;6.30;;;6.80;99.90;;;6.59;100.00;102117.91;5101372;28;20050;-89
2020/12/02 03:53:12;;;;;;;10.98;6.25;;;6.70;99.90;;;6.62;99.97;102110.38;5103284;28;20130;-91
2020/12/02 03:55:39;;;;;;;10.50;5.97;;;6.70;99.90;;;6.57;100.00;102105.38;5105855;28;20023;-89
2020/12/02 03:58:05;;;;;;;10.55;6.53;;;6.80;99.90;;;6.49;100.00;102096.28;5073356;28;20023;-89
2020/12/02 04:00:32;;;;;;;10.88;6.97;;;7.00;99.90;;;6.66;100.00;102098.25;5120884;28;20026;-88
2020/12/02 04:02:59;;;;;;;8.50;5.80;;;6.70;99.90;;;6.55;100.00;102101.13;5103217;28;20060;-89
2020/12/02 04:05:25;;;;;;;8.93;6.72;;;6.70;99.90;;;6.60;100.00;102098.84;5089563;28;20055;-90
2020/12/02 04:07:53;;;;;;;8.95;6.68;;;6.70;99.90;;;6.79;99.88;102103.38;5089848;28;20055;-91
2020/12/02 04:10:19;;;;;;;11.85;6.38;;;7.00;99.90;;;6.80;99.73;102103.22;5090479;28;20028;-91
2020/12/02 04:12:46;;;;;;;8.90;6.50;;;6.90;99.90;;;6.73;100.00;102094.00;5114572;28;20027;-90
2020/12/02 04:15:15;;;;;;;12.82;6.28;;;7.00;99.90;;;6.76;99.64;102099.13;5064363;28;20038;-88
2020/12/02 04:17:42;;;;;;;10.48;6.72;;;6.70;99.90;;;6.69;99.94;102087.16;5101610;28;20044;-89
2020/12/02 04:20:08;;;;;;;12.15;6.28;;;6.70;99.90;;;6.85;98.76;102091.97;5102588;28;20028;-89
2020/12/02 04:22:35;;;;;;;7.85;5.80;;;6.90;99.90;;;6.81;98.34;102090.56;5101491;28;20036;-90
2020/12/02 04:25:05;;;;;;;9.55;5.70;;;6.90;99.90;;;6.87;99.21;102090.84;5120018;28;20118;-90
2020/12/02 04:27:32;;;;;;;8.05;6.18;;;6.80;99.90;;;6.73;98.96;102082.31;5070929;28;20028;-91
2020/12/02 04:29:57;;;;;;;10.23;6.70;;;6.80;99.90;;;6.80;99.75;102087.00;5117703;28;20039;-91
2020/12/02 04:32:23;;;;;;;8.55;6.28;;;6.80;99.90;;;6.72;99.20;102086.03;5072138;28;20032;-91
2020/12/02 04:34:49;;;;;;;13.43;6.72;;;6.80;99.90;;;6.80;99.11;102096.97;5091048;28;20028;-91
2020/12/02 04:37:16;;;;;;;19.58;8.45;;;6.80;99.90;;;6.65;99.23;102090.31;5075262;28;20087;-89
2020/12/02 04:39:45;;;;;;;11.80;7.30;;;6.70;99.90;;;6.74;99.11;102084.03;5091863;28;20019;-90
2020/12/02 04:42:11;;;;;;;11.75;6.15;;;6.80;99.90;;;6.85;99.10;102081.16;5075739;28;20060;-89
2020/12/02 04:44:37;;;;;;;14.45;7.18;;;6.80;99.90;;;6.73;99.06;102060.66;5107582;28;20027;-90
2020/12/02 04:47:11;;;;;;;9.48;6.57;;;6.80;99.90;;;6.71;99.32;102041.88;5074104;28;20063;-90
2020/12/02 04:49:38;;;;;;;9.80;6.50;;;6.70;99.90;;;6.63;99.17;102041.75;5091880;28;20038;-90
2020/12/02 04:52:14;;;;;;;12.55;7.65;;;6.70;99.90;;;6.42;100.00;102035.66;5115909;28;20035;-89
2020/12/02 04:54:41;;;;;;;13.93;7.78;;;6.50;99.90;;;6.25;100.00;102033.69;5092019;28;20028;-90
2020/12/02 04:57:09;;;;;;;10.88;6.63;;;6.70;99.90;;;6.32;100.00;102037.53;5092381;28;20043;-89
2020/12/02 04:59:40;;;;;;;9.98;7.10;;;6.40;99.90;;;6.01;100.00;102047.59;5087458;28;20031;-89
2020/12/02 05:02:20;;;;;;;14.10;7.60;;;6.30;99.90;;;6.12;100.00;102051.03;5093207;28;20035;-91
2020/12/02 05:04:57;;;;;;;17.15;7.68;;;6.20;99.90;;;6.08;100.00;102044.22;5117263;28;20122;-91
2020/12/02 05:07:30;;;;;;;11.85;8.52;;;6.20;99.90;;;5.88;100.00;102050.56;5096042;28;20052;-90
2020/12/02 05:10:01;;;;;;;15.65;8.98;;;6.60;99.90;;;6.00;100.00;102044.06;5116012;28;20039;-89
2020/12/02 05:12:38;;;;;;;13.68;9.07;;;6.20;99.90;;;6.31;100.00;102041.22;5135551;28;20035;-90
2020/12/02 05:15:29;;;;;;;16.88;9.25;;;6.50;99.90;;;6.16;100.00;102035.41;5120216;28;20024;-90
2020/12/02 05:18:22;;;;;;;16.20;9.70;;;6.30;99.90;;;6.26;100.00;102044.34;5116539;28;20024;-90
2020/12/02 05:21:19;;;;;;;16.08;9.85;;;6.30;99.90;;;6.34;100.00;102041.78;5117353;28;20027;-91
2020/12/02 05:24:14;;;;;;;16.30;9.65;;;6.40;99.90;;;6.32;100.00;102035.66;5117881;28;20033;-90
2020/12/02 05:26:47;;;;;;;17.58;9.98;;;6.50;99.90;;;6.51;100.00;102032.09;5106209;28;20040;-89
2020/12/02 05:29:42;;;;;;;18.35;10.63;;;6.60;99.90;;;6.63;99.34;102033.63;5123049;28;20031;-91
2020/12/02 05:32:14;;;;;;;;;;;6.50;99.90;;;6.63;99.23;102022.81;5123090;28;20023;-90
2020/12/02 05:34:40;;;;;;;17.38;9.35;;;6.50;99.90;;;6.65;98.73;102022.69;5106098;28;19937;-90
2020/12/02 05:37:15;;;;;;;17.95;10.30;;;6.40;99.90;;;6.66;98.53;102011.69;5120855;28;20046;-89
2020/12/02 05:39:53;;;;;;;20.20;10.68;;;6.70;99.90;;;6.69;98.58;102015.94;5116881;28;20028;-92
2020/12/02 05:42:29;;;;;;;19.63;10.57;;;6.50;99.90;;;6.76;98.19;102012.53;5106518;28;20069;-91
2020/12/02 05:48:42;;;;;;;17.65;9.43;;;6.60;99.90;;;6.77;97.55;102000.69;5130365;28;20059;-92
2020/12/02 05:51:20;;;;;;;14.93;9.40;;;6.60;99.90;;;6.78;97.62;102013.22;5090306;28;20027;-90
2020/12/02 05:54:14;;;;;;;14.93;10.20;;;6.70;99.90;;;6.40;98.81;102007.91;5112999;28;20032;-91
2020/12/02 05:56:43;;;;;;;18.25;10.90;;;6.60;99.90;;;6.40;99.84;102013.31;5119527;28;20031;-91
2020/12/02 05:59:09;;;;;;;17.90;10.18;;;6.70;99.90;;;6.44;99.25;102015.56;5120284;27;20028;-91
2020/12/02 06:01:35;;;;;;;17.33;9.60;;;6.80;99.90;;;6.69;98.29;102016.81;5108836;28;20027;-91
2020/12/02 06:04:02;;;;;;;14.63;9.10;;;6.90;99.90;;;6.64;98.44;102016.41;5129585;28;20019;-90
2020/12/02 06:06:31;;;;;;;18.80;9.07;;;6.90;99.90;;;6.63;98.04;102017.41;5131899;27;20112;-91
2020/12/02 06:08:58;;;;;;;14.52;10.60;;;7.00;99.90;;;6.65;98.43;102017.28;5081425;28;20385;-91
2020/12/02 06:11:32;;;;;;;16.48;10.13;;;7.00;99.90;;;6.61;98.60;102019.41;5093349;28;20028;-90
2020/12/02 06:14:02;;;;;;;16.20;9.80;;;7.00;99.90;;;6.76;98.19;102017.94;5108587;28;20076;-91
2020/12/02 06:16:32;;;;;;;17.52;10.73;;;7.10;99.90;;;6.80;97.56;102013.06;5111151;28;20020;-91
2020/12/02 06:22:47;;;;;;;14.55;9.23;;;7.20;99.90;;;6.95;97.62;102013.47;5130606;28;20038;-92
2020/12/02 06:25:50;;;;;;;16.27;9.85;;;7.20;99.90;;;6.93;96.95;102013.59;5093053;28;20036;-92
2020/12/02 06:28:41;;;;;;;18.60;8.63;;;7.30;99.90;;;6.96;97.35;102012.47;5118519;27;20038;-92
2020/12/02 06:31:27;;;;;;;16.77;9.93;;;7.40;99.90;;;7.25;96.54;102013.19;5126433;28;20094;-91
2020/12/02 06:33:54;;;;;;;15.82;9.10;;;7.40;99.90;;;7.22;95.80;101997.25;5111620;28;20027;-93
2020/12/02 06:36:34;;;;;;;18.80;10.90;;;7.30;99.90;;;7.32;95.00;102008.03;5109376;28;20047;-92
2020/12/02 06:39:09;;;;;;;18.50;8.75;;;7.40;99.90;;;7.26;95.08;101999.50;5094000;28;20031;-93
2020/12/02 06:41:39;;;;;;;15.48;9.95;;;7.10;99.90;;;7.24;95.41;102000.63;5108516;28;20032;-92
2020/12/02 06:44:11;;;;;;;16.10;9.55;;;7.40;99.90;;;7.29;94.42;101992.94;5098780;28;20027;-92
2020/12/02 06:47:35;;;;;;;19.40;9.85;;;7.30;99.90;;;7.15;94.65;101990.72;5110429;28;20051;-91
2020/12/02 06:50:11;;;;;;;15.70;9.38;;;7.30;99.90;;;7.21;95.61;101992.84;5129774;28;20032;-92
2020/12/02 06:52:38;;;;;;;15.65;9.13;;;7.40;99.90;;;7.12;95.29;101996.41;5110701;28;20054;-92
2020/12/02 06:55:40;;;;;;;14.38;9.95;;;7.30;99.90;;;7.07;95.57;101993.31;5094019;28;20027;-92
2020/12/02 06:58:34;;;;;;;22.20;10.35;;;7.40;99.90;;;7.05;95.75;101993.47;5119344;28;20032;-92
2020/12/02 07:01:41;;;;;;;16.30;9.15;;;7.50;99.90;;;7.05;96.23;102003.44;5132584;28;20020;-94
2020/12/02 07:04:23;;;;;;;16.35;8.88;;;7.70;99.90;;;7.12;96.21;101996.41;5022864;28;20037;-93
2020/12/02 07:27:33;;;;;;;16.48;8.45;;;7.50;99.90;;;7.14;94.86;101983.59;5068372;26;20041;-90
2020/12/02 07:35:17;;;;;;;17.42;9.68;;;7.70;99.90;;;7.29;93.87;101979.38;5293439;22;20063;-92
2020/12/02 07:37:44;;;;;;;19.13;9.65;;;7.70;99.90;;;7.40;93.00;101983.75;5061318;28;20024;-93
2020/12/02 07:40:36;;;;;;;14.40;9.93;;;7.80;99.90;;;7.22;93.94;101979.13;5078750;28;20032;-92
2020/12/02 07:43:06;;;;;;;18.70;10.48;;;7.80;99.90;;;7.09;94.66;101986.78;5078634;28;20035;-93
2020/12/02 07:45:37;;;;;;;16.88;9.80;;;7.40;99.90;;;7.21;95.21;101982.88;5095229;28;20027;-91
2020/12/02 07:48:19;;;;;;;19.17;10.43;;;7.60;99.90;;;7.34;94.41;101974.34;5080285;28;20068;-92
2020/12/02 07:50:53;;;;;;;18.23;9.70;;;7.80;99.90;;;7.47;94.05;101974.84;5078003;28;20046;-93
2020/12/02 07:53:43;;;;;;;17.73;9.85;;;7.50;99.90;;;7.49;93.24;101980.13;5081984;28;20032;-93
2020/12/02 07:56:31;;;;;;;21.08;11.80;;;7.40;99.90;;;7.08;95.40;101973.38;5111693;28;20050;-91
2020/12/02 07:59:09;;;;;;;17.50;10.43;;;7.10;99.90;;;7.07;96.56;101977.09;5099775;28;20035;-92
2020/12/02 08:01:54;;;;;;;20.73;11.98;;;7.50;99.90;;;7.07;96.34;101971.66;5083497;28;20038;-91
2020/12/02 08:04:21;;;;;;;18.60;10.73;;;7.20;99.90;;;7.02;96.54;101968.53;5109602;28;20059;-92
2020/12/02 08:07:09;;;;;;;20.25;10.85;;;7.30;99.90;;;7.00;96.73;101970.56;5099682;28;20035;-90
2020/12/02 08:10:00;;;;;;;17.38;10.02;;;7.20;99.90;;;7.20;95.17;101962.19;5082151;28;20028;-93
2020/12/02 08:12:33;;;;;;;17.63;10.55;;;7.20;99.90;;;7.13;96.27;101960.22;5076885;28;20033;-92
2020/12/02 08:15:12;;;;;;;18.45;11.60;;;7.30;99.90;;;6.97;96.81;101954.63;5088702;28;20028;-91
2020/12/02 08:18:26;;;;;;;20.85;11.65;;;7.40;99.90;;;7.11;96.79;101954.97;5066055;28;20128;-91
2020/12/02 08:21:14;;;;;;;20.80;11.77;;;7.30;99.90;;;7.21;95.99;101960.34;5108858;22;20099;-91
2020/12/02 09:52:59;;;;;;;19.77;10.60;;;8.50;99.90;;;8.56;89.16;101877.84;2413354;23;20306;-92
2020/12/02 10:07:04;;;;;;;15.07;9.43;;;8.70;99.90;;;8.56;88.66;101875.13;5071402;23;20065;-91
2020/12/02 11:10:57;;;;;;;15.55;8.25;;;9.00;99.90;;;8.96;84.20;101752.22;5007667;28;20125;-92
2020/12/02 11:13:54;;;;;;;14.00;9.13;;;9.10;99.90;;;9.09;84.80;101753.44;4995710;28;20479;-91
2020/12/02 11:19:40;;;;;;;18.90;8.88;;;9.20;99.90;;;8.98;84.85;101733.91;5036680;22;20058;-90
2020/12/02 11:22:55;;;;;;;14.05;8.38;;;9.30;99.90;;;8.96;85.23;101731.38;4999408;28;20029;-91
2020/12/02 11:26:02;;;;;;;14.00;9.10;;;9.30;99.90;;;9.04;84.41;101723.22;5002529;28;20034;-92
2020/12/02 11:28:28;;;;;;;13.27;8.95;;;9.30;99.90;;;9.00;84.77;101716.44;4997002;28;20034;-91
2020/12/02 11:31:30;;;;;;;14.35;8.93;;;9.30;99.90;;;9.08;84.60;101708.28;5001116;28;20114;-90
2020/12/02 11:34:07;;;;;;;15.05;9.30;;;9.20;99.90;;;9.24;83.53;101712.88;4985143;28;20047;-92
2020/12/02 11:37:05;;;;;;;11.77;7.82;;;9.20;99.90;;;9.25;83.78;101709.16;5000146;28;20041;-92
2020/12/02 11:40:11;;;;;;;12.38;8.48;;;9.30;99.90;;;9.19;83.13;101712.53;5013275;28;20030;-91
2020/12/02 11:43:24;;;;;;;13.35;8.57;;;9.20;99.90;;;9.10;82.35;101706.25;4921702;29;20035;-92
2020/12/02 11:45:52;;;;;;;12.07;7.78;;;9.20;99.90;;;9.07;83.41;101700.31;4916793;29;20072;-92
2020/12/02 11:48:27;;;;;;;14.13;8.90;;;9.20;99.90;;;9.09;82.64;101695.56;4986011;28;20038;-92
2020/12/02 11:51:37;;;;;;;12.63;8.40;;;9.20;99.90;;;9.12;82.26;101680.81;4989436;28;20066;-93
2020/12/02 11:54:10;;;;;;;11.88;7.45;;;9.10;99.90;;;9.25;81.79;101681.13;4965205;28;20031;-90
2020/12/02 11:56:57;;;;;;;12.45;7.75;;;9.20;99.90;;;9.16;82.50;101676.69;4964673;28;20077;-93
2020/12/02 11:59:35;;;;;;;14.93;8.32;;;9.20;99.90;;;9.19;82.53;101677.22;4967014;28;20019;-92
2020/12/02 12:02:40;;;;;;;13.80;9.57;;;9.10;99.90;;;9.13;82.16;101661.63;4968876;28;20039;-92
2020/12/02 12:05:23;;;;;;;14.07;8.80;;;9.10;99.90;;;9.23;82.45;101666.88;4985404;28;20011;-93
2020/12/02 12:08:49;;;;;;;13.25;9.13;;;9.10;99.90;;;9.19;82.48;101657.34;4984372;28;20019;-92
2020/12/02 12:11:52;;;;;;;12.10;7.75;;;9.10;99.90;;;9.00;83.48;101648.56;4984472;28;20027;-91
2020/12/02 12:17:35;;;;;;;18.27;8.88;;;9.10;99.90;;;9.05;83.57;101643.44;5041201;23;20053;-92
2020/12/02 12:20:12;;;;;;;15.13;9.02;;;9.10;99.90;;;9.30;83.06;101637.97;4972450;28;20042;-92
2020/12/02 13:28:26;;;;;;;11.68;7.72;;;8.80;99.90;;;8.61;84.93;101552.53;1018160;23;20326;-93
2020/12/02 13:31:29;;;;;;;16.88;9.18;;;8.60;99.90;;;8.57;85.15;101535.75;5348526;23;20806;-92
2020/12/02 13:34:19;;;;;;;13.88;9.32;;;8.60;99.90;;;8.56;85.46;101525.06;4979598;28;20039;-89
2020/12/02 13:36:47;;;;;;;13.35;8.90;;;8.60;99.90;;;8.56;85.46;101522.34;4921781;29;20112;-92
2020/12/02 13:39:16;;;;;;;18.90;9.60;;;8.50;99.90;;;8.33;86.81;101517.63;4922573;29;20044;-91
2020/12/02 13:41:52;;;;;;;18.85;9.60;;;8.40;99.90;;;8.34;86.72;101513.88;4908532;29;20072;-91
2020/12/02 13:44:45;;;;;;;20.27;9.02;;;8.40;99.90;;;8.27;87.07;101507.38;4923647;29;20044;-91
2020/12/02 13:47:37;;;;;;;15.05;9.45;;;8.40;99.90;;;8.17;87.53;101512.13;4921494;29;20052;-91
2020/12/02 13:50:16;;;;;;;14.98;8.70;;;8.30;99.90;;;8.28;86.46;101513.66;4922875;29;20032;-92
2020/12/02 13:53:11;;;;;;;18.60;10.10;;;8.30;99.90;;;8.30;86.40;101507.06;4905660;29;20040;-91
2020/12/02 13:56:17;;;;;;;14.18;9.00;;;8.20;99.90;;;8.12;87.44;101509.09;4920832;29;20032;-91
2020/12/02 13:59:16;;;;;;;14.35;8.18;;;8.30;99.90;;;8.15;87.96;101508.75;4923312;29;20016;-91
2020/12/02 14:05:07;;;;;;;17.42;9.68;;;8.20;99.90;;;8.03;87.86;101504.66;5499190;23;20066;-90
2020/12/02 14:07:34;;;;;;;13.43;8.68;;;8.40;99.90;;;8.17;87.50;101498.56;4980764;28;20080;-89
2020/12/02 14:10:09;;;;;;;18.75;8.98;;;8.30;99.90;;;8.16;88.07;101493.31;4998343;28;20094;-90
2020/12/02 14:15:29;;;;;;;16.25;10.00;;;8.40;99.90;;;8.17;88.21;101489.59;5417877;23;20055;-92
2020/12/02 14:18:01;;;;;;;13.95;8.65;;;8.50;99.90;;;8.24;88.43;101483.31;4997085;28;20070;-92
2020/12/02 14:20:41;;;;;;;16.75;9.70;;;8.60;99.90;;;8.25;88.49;101493.16;4983867;28;20041;-90
2020/12/02 16:32:06;;;;;;;20.45;12.23;;;7.60;99.90;;;7.36;94.24;101349.44;4810978;29;20085;-92
2020/12/02 16:40:39;;;;;;;21.83;11.93;;;7.40;99.90;;;7.31;94.47;101327.44;5087290;24;20043;-93
2020/12/02 16:43:47;;;;;;;19.92;11.18;;;7.40;99.90;;;7.31;94.50;101319.31;4756677;30;20203;-92
2020/12/02 16:46:55;;;;;;;18.17;9.70;;;7.40;99.90;;;7.19;94.63;101326.06;4744341;30;20049;-90
2020/12/02 16:50:00;;;;;;;21.90;11.63;;;7.30;99.90;;;7.25;94.50;101322.69;4742091;30;20142;-92
2020/12/02 16:52:37;;;;;;;28.20;12.55;;;7.30;99.90;;;7.11;95.22;101317.94;4754386;30;20044;-91
2020/12/02 16:55:18;;;;;;;18.15;10.63;;;7.30;99.90;;;7.20;95.09;101317.78;4756308;30;20035;-93
2020/12/02 16:57:56;;;;;;;20.15;10.65;;;7.30;99.90;;;7.29;94.87;101310.53;4759704;30;20036;-92
2020/12/02 17:00:32;;;;;;;23.08;10.95;;;7.40;99.90;;;7.39;94.33;101300.38;4757457;30;20051;-92
2020/12/02 17:03:19;;;;;;;19.10;10.20;;;7.30;99.90;;;7.38;94.14;101304.09;4970741;24;20064;-92
2020/12/02 17:05:57;;;;;;;19.63;11.27;;;7.40;99.90;;;7.39;94.43;101289.53;4811072;29;20070;-91
2020/12/02 17:08:24;;;;;;;19.77;11.48;;;7.40;99.90;;;7.29;94.36;101289.72;4796910;29;20137;-93
2020/12/02 17:11:16;;;;;;;22.35;11.95;;;7.40;99.90;;;7.32;94.74;101274.13;4808706;29;20062;-92
2020/12/02 17:14:09;;;;;;;24.40;11.95;;;7.40;99.90;;;7.24;94.79;101277.66;4791632;30;20027;-93
2020/12/02 17:21:00;;;;;;;20.65;10.95;;;7.30;99.90;;;7.23;95.04;101281.38;4807359;30;20072;-92
2020/12/02 17:24:21;;;;;;;20.55;11.13;;;7.40;99.90;;;7.34;94.19;101267.50;4809258;30;20130;-91
2020/12/02 17:27:20;;;;;;;20.73;11.27;;;7.40;99.90;;;7.46;93.45;101265.31;4815483;29;20035;-93
2020/12/02 17:30:27;;;;;;;21.25;11.70;;;7.40;99.90;;;7.15;94.58;101265.16;4790708;30;20045;-93
2020/12/02 17:33:29;;;;;;;23.58;13.02;;;7.40;99.90;;;7.31;94.30;101265.16;4775883;30;20055;-92
2020/12/02 17:36:09;;;;;;;21.63;12.40;;;7.40;99.90;;;7.47;93.61;101265.16;4789386;30;20027;-94
2020/12/02 17:39:24;;;;;;;24.15;13.43;;;7.50;99.90;;;7.24;94.31;101264.13;4778968;30;20055;-93
2020/12/02 17:45:39;;;;;;;24.92;13.07;;;7.60;99.90;;;7.20;94.66;101260.09;4915897;24;20078;-94
2020/12/02 17:48:35;;;;;;;25.48;12.48;;;7.40;99.90;;;7.23;95.09;101257.03;4794447;30;20035;-93
2020/12/02 17:51:28;;;;;;;22.17;12.05;;;7.40;99.90;;;7.21;94.84;101250.97;4809680;30;20066;-92
2020/12/02 17:54:04;;;;;;;21.52;12.48;;;7.40;99.90;;;7.26;95.18;101243.16;4807386;30;20039;-91
2020/12/02 17:56:35;;;;;;;21.27;11.23;;;7.40;99.90;;;7.34;94.86;101243.16;4794337;29;20060;-92
2020/12/02 17:59:28;;;;;;;23.98;12.15;;;7.40;99.90;;;7.33;94.05;101238.78;4779142;29;20066;-91
2020/12/02 19:36:34;;;;;;;21.58;12.38;;;7.10;99.90;;;7.08;95.44;101110.69;4861692;24;20393;-89
2020/12/02 19:39:43;;;;;;;28.77;13.40;;;7.20;99.90;;;6.96;96.02;101103.09;4793692;30;20078;-92
2020/12/02 20:52:53;;;;;;;24.10;13.05;;;7.10;99.90;;;6.91;99.39;100993.50;4804077;30;20051;-92
2020/12/02 21:29:07;;;;;;;32.17;16.23;;;7.40;99.90;;;7.19;99.52;100947.91;4793013;30;20112;-94
2020/12/02 21:31:54;;;;;;;30.13;16.13;;;7.40;99.90;;;7.07;100.00;100938.50;4777102;30;20062;-93
2020/12/02 21:35:07;;;;;;;28.00;15.50;;;7.40;99.90;;;7.08;100.00;100939.34;4774935;30;20043;-92
2020/12/02 21:37:35;;;;;;;27.67;15.30;;;7.30;99.90;;;7.23;99.95;100938.41;4791763;30;20067;-93
2020/12/02 21:40:26;;;;;;;31.27;16.85;;;7.40;99.90;;;7.24;100.00;100933.84;4777395;30;20033;-95
2020/12/02 21:43:12;;;;;;;31.35;16.27;;;7.40;99.90;;;7.22;99.75;100930.47;4776150;30;20039;-92
2020/12/02 21:46:03;;;;;;;35.22;18.13;;;7.50;99.90;;;7.35;99.96;100924.47;4775986;30;20039;-93
2020/12/02 21:48:57;;;;;;;32.45;17.00;;;7.60;99.90;;;7.44;99.78;100918.84;4776293;30;20016;-92
2020/12/02 21:52:00;;;;;;;36.67;17.02;;;7.60;99.90;;;7.22;100.00;100912.34;4774327;30;20073;-94
2020/12/02 21:55:19;;;;;;;26.98;15.18;;;7.60;99.90;;;7.31;99.26;100913.16;4790712;30;20122;-94
2020/12/02 21:57:46;;;;;;;31.42;16.65;;;7.80;99.90;;;7.33;100.00;100900.31;4776468;30;20035;-95
2020/12/02 22:00:33;;;;;;;29.77;16.20;;;7.60;99.90;;;7.39;99.78;100899.56;4774480;30;20128;-93
2020/12/02 23:13:35;;;;;;;21.63;12.65;;;7.10;99.90;;;7.15;100.00;100788.72;497486;24;20347;-93
2020/12/02 23:16:38;;;;;;;25.23;13.00;;;7.20;99.90;;;7.08;100.00;100790.47;4804947;30;20071;-93
2020/12/02 23:19:06;;;;;;;24.63;13.38;;;7.30;99.90;;;7.07;100.00;100786.94;4786078;30;20126;-94
2020/12/02 23:21:35;;;;;;;26.15;13.02;;;7.70;99.90;;;7.18;100.00;100778.38;4760596;30;20490;-92
2020/12/02 23:24:03;;;;;;;25.95;13.25;;;7.30;99.90;;;7.15;100.00;100780.59;4776505;30;20043;-92
2020/12/02 23:26:45;;;;;;;27.88;13.35;;;7.40;99.90;;;7.07;100.00;100772.56;4773295;30;20035;-93
2020/12/02 23:30:01;;;;;;;18.80;11.50;;;7.30;99.90;;;6.92;100.00;100773.31;4773363;30;20032;-93
2020/12/02 23:32:58;;;;;;;26.50;11.18;;;7.20;99.90;;;7.08;100.00;100766.97;4774466;30;20027;-92
2020/12/02 23:35:26;;;;;;;21.25;11.88;;;7.30;99.90;;;7.13;100.00;100763.69;4772714;30;20074;-94
2020/12/02 23:37:54;;;;;;;31.73;12.68;;;7.30;99.90;;;7.09;100.00;100749.69;4785249;30;20043;-92
2020/12/02 23:40:24;;;;;;;21.10;11.43;;;7.30;99.90;;;7.16;100.00;100737.13;4751581;30;20093;-93
2020/12/02 23:43:10;;;;;;;21.20;11.63;;;7.50;99.90;;;6.98;99.75;100738.44;4770320;30;20049;-93
2020/12/02 23:45:53;;;;;;;20.63;9.90;;;7.30;99.90;;;6.96;100.00;100729.66;4773001;30;20482;-94
2020/12/02 23:58:48;;;;;;;20.58;10.98;;;7.00;99.90;;;6.67;100.00;100704.13;4801692;30;20089;-94
